Ullin, Illinois
Current Conditions -  °F | °C
As of 12:15 PM on Thursday 23 Oct 2014 (Local Time) from KCIR Reporting Station
Clear Clear  
Wind Chill: 59°   Ceiling: Unl
Heat Index: 59°   Visibility: 10mi
Dew Point: 44°   Wind: 0mph
Humidity: 57%   Direction: NA
Pressure: 30.23"   Gusts: NA
Location:  37.28°N, 89.18°W
Report Text: KCIR 231715Z AUTO 00000KT 10SM CLR 15/07 A3023 RMK AO2 T01500065
Loading
Personal Weather Stations






























Interactive Weather Map
Tropical Storm Tracking
New forecast layout! Learn more

10-Day Weather Forecast

Advertisements
Track Severe Weather on mobile